createdAt,value
2022-12-25T00:01:32.036Z,92.00
2022-12-25T00:04:56.850Z,91.80
2022-12-25T00:08:20.290Z,91.90
2022-12-25T00:11:43.823Z,92.10
2022-12-25T00:15:08.232Z,92.20
2022-12-25T00:21:56.917Z,92.50
2022-12-25T00:25:20.558Z,92.50
2022-12-25T00:39:01.349Z,92.50
2022-12-25T01:13:34.587Z,92.20
2022-12-25T01:23:46.329Z,91.40
2022-12-25T01:27:10.198Z,92.60
2022-12-25T01:30:35.401Z,92.60
2022-12-25T01:33:58.926Z,92.50
2022-12-25T01:37:22.375Z,92.50
2022-12-25T01:40:45.913Z,92.50
2022-12-25T01:44:49.104Z,92.70
2022-12-25T01:48:20.520Z,92.90
2022-12-25T01:51:49.101Z,92.90
2022-12-25T01:55:13.688Z,93.10
2022-12-25T01:58:37.901Z,93.20
2022-12-25T02:02:03.942Z,93.20
2022-12-25T02:05:31.656Z,93.10
2022-12-25T02:08:55.174Z,92.60
2022-12-25T02:12:23.629Z,92.80
2022-12-25T02:16:00.412Z,92.50
2022-12-25T02:19:45.790Z,92.90
2022-12-25T02:23:50.559Z,92.90
2022-12-25T02:27:32.552Z,91.90
2022-12-25T02:31:08.819Z,92.90
2022-12-25T02:34:42.462Z,92.80
2022-12-25T02:38:15.928Z,92.90
2022-12-25T02:41:41.733Z,92.90
2022-12-25T02:45:23.788Z,93.10
2022-12-25T02:49:11.916Z,93.20
2022-12-25T02:52:54.094Z,93.20
2022-12-25T02:56:36.533Z,93.40
2022-12-25T03:00:20.498Z,93.50
2022-12-25T03:04:08.718Z,93.60
2022-12-25T03:07:36.186Z,93.50
2022-12-25T03:11:21.652Z,93.40
2022-12-25T03:15:03.672Z,93.30
2022-12-25T03:18:32.121Z,93.30
2022-12-25T03:22:16.436Z,93.20
2022-12-25T03:25:57.932Z,93.10
2022-12-25T03:29:35.659Z,93.20
2022-12-25T03:33:36.830Z,93.40
2022-12-25T03:37:25.798Z,93.40
2022-12-25T03:41:19.643Z,93.50
2022-12-25T03:45:25.976Z,93.70
2022-12-25T03:49:15.440Z,93.70
2022-12-25T03:53:00.229Z,93.60
2022-12-25T03:56:42.406Z,93.70
2022-12-25T04:00:25.894Z,93.80
2022-12-25T04:04:07.006Z,93.80
2022-12-25T04:07:48.363Z,93.90
2022-12-25T04:11:30.588Z,93.90
2022-12-25T04:15:11.911Z,93.90
2022-12-25T04:18:53.012Z,93.90
2022-12-25T04:22:34.067Z,93.60
2022-12-25T04:26:17.157Z,93.30
2022-12-25T04:29:59.772Z,92.80
2022-12-25T04:33:40.713Z,92.90
2022-12-25T04:37:04.164Z,93.20
2022-12-25T04:40:27.647Z,93.20
2022-12-25T04:43:51.070Z,93.30
2022-12-25T04:47:15.847Z,93.40
2022-12-25T04:50:39.279Z,93.30
2022-12-25T04:54:02.671Z,93.30
2022-12-25T04:57:26.058Z,93.20
2022-12-25T05:00:49.676Z,93.20
2022-12-25T05:04:14.551Z,93.20
2022-12-25T05:07:38.385Z,93.10
2022-12-25T05:11:05.609Z,93.00
2022-12-25T05:14:29.275Z,91.80
2022-12-25T05:17:52.738Z,93.10
2022-12-25T05:21:18.901Z,93.10
2022-12-25T05:24:42.418Z,93.00
2022-12-25T05:28:06.211Z,92.90
2022-12-25T05:31:29.742Z,92.70
2022-12-25T05:34:53.213Z,92.50
2022-12-25T05:38:18.049Z,92.50
2022-12-25T05:41:42.295Z,92.60
2022-12-25T05:45:07.266Z,92.90
2022-12-25T05:48:30.726Z,93.00
2022-12-25T05:51:54.192Z,93.00
2022-12-25T05:55:19.047Z,92.90
2022-12-25T05:58:42.535Z,92.60
2022-12-25T06:02:06.093Z,92.70
2022-12-25T06:05:29.713Z,92.70
2022-12-25T06:08:55.122Z,92.80
2022-12-25T06:12:20.016Z,92.60
2022-12-25T06:15:43.773Z,92.60
2022-12-25T06:19:07.842Z,92.60
2022-12-25T06:22:31.997Z,92.60
2022-12-25T06:25:55.538Z,92.60
2022-12-25T06:29:20.466Z,92.60
2022-12-25T06:32:44.028Z,92.50
2022-12-25T06:36:09.730Z,92.40
2022-12-25T06:39:34.152Z,92.50
2022-12-25T06:42:58.012Z,92.60
2022-12-25T06:46:25.977Z,92.50
2022-12-25T06:49:49.798Z,92.40
2022-12-25T06:53:13.625Z,92.50
2022-12-25T06:56:37.400Z,92.40
2022-12-25T07:00:01.170Z,92.50
2022-12-25T07:03:29.984Z,92.60
2022-12-25T07:06:54.348Z,92.40
2022-12-25T07:10:18.145Z,92.50
2022-12-25T07:13:41.820Z,93.00
2022-12-25T07:17:05.370Z,92.70
2022-12-25T07:20:30.809Z,92.70
2022-12-25T07:23:54.409Z,92.60
2022-12-25T07:27:18.022Z,92.80
2022-12-25T07:30:41.633Z,92.90
2022-12-25T07:34:05.661Z,92.80
2022-12-25T07:37:30.851Z,92.80
2022-12-25T07:40:54.558Z,92.80
2022-12-25T07:44:18.391Z,93.00
2022-12-25T07:47:41.845Z,93.10
2022-12-25T07:51:08.251Z,93.20
2022-12-25T07:54:33.263Z,93.20
2022-12-25T07:57:56.755Z,93.10
2022-12-25T08:01:23.526Z,93.20
2022-12-25T08:04:47.216Z,93.00
2022-12-25T08:08:10.637Z,92.90
2022-12-25T08:11:35.716Z,92.80
2022-12-25T08:14:59.238Z,92.50
2022-12-25T08:18:29.459Z,92.80
2022-12-25T08:21:53.475Z,93.00
2022-12-25T08:25:17.337Z,92.90
2022-12-25T08:28:42.221Z,93.10
2022-12-25T08:32:05.881Z,92.80
2022-12-25T08:35:29.349Z,93.10
2022-12-25T08:38:57.045Z,93.60
2022-12-25T08:42:24.098Z,93.90
2022-12-25T08:45:49.529Z,94.30
2022-12-25T08:49:13.058Z,94.60
2022-12-25T08:52:36.576Z,94.80
2022-12-25T08:56:00.893Z,94.70
2022-12-25T08:59:24.297Z,94.60
2022-12-25T09:02:49.271Z,94.70
2022-12-25T09:06:16.250Z,94.70
2022-12-25T09:09:39.950Z,94.40
2022-12-25T09:13:03.465Z,93.70
2022-12-25T09:16:27.069Z,93.00
2022-12-25T09:19:51.949Z,92.60
2022-12-25T09:23:15.415Z,92.20
2022-12-25T09:26:40.008Z,92.10
2022-12-25T09:30:03.636Z,91.90
2022-12-25T09:33:27.185Z,91.80
2022-12-25T09:36:52.595Z,91.50
2022-12-25T09:40:19.783Z,91.20
2022-12-25T09:43:50.736Z,91.30
2022-12-25T09:47:19.291Z,91.50
2022-12-25T09:50:52.109Z,91.60
2022-12-25T09:54:25.410Z,91.70
2022-12-25T09:57:55.140Z,91.60
2022-12-25T10:01:30.098Z,91.80
2022-12-25T10:05:13.214Z,91.80
2022-12-25T10:09:12.845Z,91.70
2022-12-25T10:12:57.359Z,91.60
2022-12-25T10:16:35.465Z,91.60
2022-12-25T10:20:18.357Z,92.00
2022-12-25T10:23:48.917Z,92.50
2022-12-25T10:27:19.950Z,93.70
2022-12-25T10:30:45.957Z,94.40
2022-12-25T10:34:13.930Z,95.20
2022-12-25T10:37:39.345Z,96.00
2022-12-25T10:41:23.188Z,96.60
2022-12-25T10:44:57.590Z,97.20
2022-12-25T10:48:27.925Z,99.50
2022-12-25T10:51:52.222Z,99.90
2022-12-25T10:55:26.587Z,99.90
2022-12-25T10:58:52.051Z,99.90
2022-12-25T11:02:22.659Z,99.90
2022-12-25T11:05:51.703Z,99.90
2022-12-25T11:09:17.825Z,99.90
2022-12-25T11:12:47.145Z,99.90
2022-12-25T11:16:15.431Z,99.80
2022-12-25T11:19:39.108Z,97.90
2022-12-25T11:23:10.884Z,96.90
2022-12-25T11:26:48.465Z,95.10
2022-12-25T11:30:16.489Z,94.40
2022-12-25T11:33:50.120Z,94.50
2022-12-25T11:37:21.283Z,94.70
2022-12-25T11:40:51.668Z,94.70
2022-12-25T11:44:31.764Z,94.80
2022-12-25T11:48:01.669Z,94.80
2022-12-25T11:51:30.329Z,95.20
2022-12-25T11:55:03.137Z,95.80
2022-12-25T11:58:34.586Z,96.00
2022-12-25T12:02:05.255Z,95.90
2022-12-25T12:05:39.992Z,95.80
2022-12-25T12:09:23.908Z,95.30
2022-12-25T12:12:58.932Z,95.20
2022-12-25T12:16:23.920Z,94.30
2022-12-25T12:19:47.461Z,94.40
2022-12-25T12:23:17.581Z,94.50
2022-12-25T12:26:44.935Z,94.10
2022-12-25T12:30:25.648Z,94.30
2022-12-25T12:33:57.218Z,93.90
2022-12-25T12:37:29.238Z,93.90
2022-12-25T12:40:57.119Z,93.50
2022-12-25T12:44:27.726Z,93.10
2022-12-25T12:47:53.195Z,93.30
2022-12-25T12:51:31.194Z,94.10
2022-12-25T12:55:02.334Z,94.20
2022-12-25T12:58:33.567Z,95.30
2022-12-25T13:02:23.662Z,95.70
2022-12-25T13:05:54.463Z,95.10
2022-12-25T13:09:39.533Z,95.80
2022-12-25T13:13:13.286Z,94.80
2022-12-25T13:16:41.499Z,94.50
2022-12-25T13:20:07.695Z,94.30
2022-12-25T13:23:34.055Z,93.90
2022-12-25T13:27:00.429Z,93.40
2022-12-25T13:30:25.649Z,93.00
2022-12-25T13:33:57.193Z,92.80
2022-12-25T13:37:25.388Z,92.60
2022-12-25T13:41:08.509Z,92.40
2022-12-25T13:44:46.344Z,92.40
2022-12-25T13:48:25.679Z,92.30
2022-12-25T13:51:50.591Z,92.20
2022-12-25T13:55:17.295Z,92.70
2022-12-25T13:58:41.047Z,92.80
2022-12-25T14:02:19.411Z,93.00
2022-12-25T14:05:43.808Z,92.90
2022-12-25T14:09:07.682Z,93.10
2022-12-25T14:12:33.905Z,93.40
2022-12-25T14:15:59.094Z,93.80
2022-12-25T14:19:29.719Z,94.30
2022-12-25T14:22:56.749Z,95.00
2022-12-25T14:26:23.348Z,95.00
2022-12-25T14:29:50.727Z,94.90
2022-12-25T14:33:20.459Z,95.00
2022-12-25T14:36:45.880Z,95.10
2022-12-25T14:40:25.972Z,95.40
2022-12-25T14:43:54.086Z,94.60
2022-12-25T14:47:21.044Z,94.40
2022-12-25T14:50:59.133Z,94.20
2022-12-25T14:54:25.401Z,94.20
2022-12-25T14:57:52.455Z,94.80
2022-12-25T15:01:23.781Z,94.40
2022-12-25T15:04:47.310Z,93.80
2022-12-25T15:08:25.390Z,93.70
2022-12-25T15:11:51.719Z,93.40
2022-12-25T15:15:15.400Z,94.00
2022-12-25T15:18:42.703Z,94.20
2022-12-25T15:22:07.135Z,94.40
2022-12-25T15:25:31.031Z,94.70
2022-12-25T15:28:55.885Z,94.80
2022-12-25T15:32:22.523Z,94.70
2022-12-25T15:35:46.774Z,95.40
2022-12-25T15:39:10.179Z,96.00
2022-12-25T15:42:33.590Z,95.80
2022-12-25T15:45:58.321Z,96.00
2022-12-25T15:49:21.783Z,96.10
2022-12-25T15:52:45.209Z,97.00
2022-12-25T15:56:11.045Z,97.30
2022-12-25T15:59:34.823Z,97.70
2022-12-25T16:02:59.847Z,97.50
2022-12-25T16:06:23.495Z,97.30
2022-12-25T16:09:47.418Z,97.10
2022-12-25T16:13:10.802Z,96.20
2022-12-25T16:16:34.329Z,95.50
2022-12-25T16:19:59.160Z,94.90
2022-12-25T16:23:23.150Z,94.50
2022-12-25T16:26:46.554Z,95.10
2022-12-25T16:30:13.466Z,94.70
2022-12-25T16:33:36.945Z,94.10
2022-12-25T16:37:01.844Z,94.00
2022-12-25T16:40:25.517Z,93.40
2022-12-25T16:43:49.269Z,93.50
2022-12-25T16:47:12.790Z,93.60
2022-12-25T16:50:39.054Z,93.50
2022-12-25T16:54:04.023Z,93.70
2022-12-25T16:57:28.093Z,93.30
2022-12-25T17:00:51.572Z,93.40
2022-12-25T17:04:15.011Z,93.20
2022-12-25T17:07:39.803Z,93.00
2022-12-25T17:11:07.035Z,92.70
2022-12-25T17:14:30.446Z,92.20
2022-12-25T17:17:53.913Z,92.60
2022-12-25T17:21:17.247Z,93.10
2022-12-25T17:24:41.503Z,93.30
2022-12-25T17:28:06.553Z,93.50
2022-12-25T17:31:30.528Z,93.10
2022-12-25T17:34:54.160Z,93.30
2022-12-25T17:38:17.670Z,93.60
2022-12-25T17:41:41.066Z,93.40
2022-12-25T17:45:07.288Z,93.10
2022-12-25T17:48:30.819Z,92.60
2022-12-25T17:51:55.226Z,92.80
2022-12-25T17:55:18.789Z,92.30
2022-12-25T17:58:43.003Z,92.50
2022-12-25T18:02:07.940Z,92.50
2022-12-25T18:05:31.497Z,92.10
2022-12-25T18:08:57.298Z,92.30
2022-12-25T18:12:20.674Z,92.10
2022-12-25T18:15:44.215Z,92.00
2022-12-25T18:19:09.598Z,92.20
2022-12-25T18:22:35.073Z,91.80
2022-12-25T18:26:02.271Z,91.90
2022-12-25T18:29:25.623Z,91.90
2022-12-25T18:32:49.099Z,91.60
2022-12-25T18:36:20.655Z,91.70
2022-12-25T18:39:44.076Z,91.60
2022-12-25T18:43:07.582Z,92.10
2022-12-25T18:46:31.030Z,92.20
2022-12-25T18:49:54.509Z,92.70
2022-12-25T18:53:19.283Z,93.10
2022-12-25T18:56:42.678Z,93.00
2022-12-25T19:00:08.262Z,93.40
2022-12-25T19:03:31.714Z,93.70
2022-12-25T19:06:55.193Z,93.70
2022-12-25T19:10:20.589Z,93.40
2022-12-25T19:13:44.727Z,93.20
2022-12-25T19:17:10.492Z,93.20
2022-12-25T19:20:34.126Z,92.80
2022-12-25T19:23:57.707Z,92.50
2022-12-25T19:27:22.707Z,92.80
2022-12-25T19:30:46.270Z,92.60
2022-12-25T19:34:10.594Z,92.80
2022-12-25T19:37:34.179Z,92.70
2022-12-25T19:41:03.966Z,92.60
2022-12-25T19:44:28.849Z,92.40
2022-12-25T19:47:52.915Z,92.40
2022-12-25T19:51:24.497Z,92.70
2022-12-25T19:54:51.481Z,92.80
2022-12-25T19:58:14.928Z,92.60
2022-12-25T20:01:40.182Z,92.40
2022-12-25T20:05:03.688Z,91.90
2022-12-25T20:08:27.214Z,92.50
2022-12-25T20:11:50.951Z,92.90
2022-12-25T20:15:14.440Z,93.00
2022-12-25T20:18:40.333Z,93.00
2022-12-25T20:22:03.791Z,92.90
2022-12-25T20:25:27.354Z,93.00
2022-12-25T20:28:51.549Z,92.70
2022-12-25T20:32:15.904Z,92.60
2022-12-25T20:35:46.506Z,92.40
2022-12-25T20:39:13.365Z,91.70
2022-12-25T20:42:36.894Z,92.60
2022-12-25T20:46:00.611Z,92.70
2022-12-25T20:49:24.113Z,92.70
2022-12-25T20:52:48.939Z,92.60
2022-12-25T20:56:14.932Z,92.10
2022-12-25T20:59:38.401Z,92.00
2022-12-25T21:03:02.026Z,92.20
2022-12-25T21:06:25.951Z,92.90
2022-12-25T21:09:50.749Z,92.20
2022-12-25T21:13:14.178Z,92.00
2022-12-25T21:16:37.757Z,92.20
2022-12-25T21:20:01.203Z,92.00
2022-12-25T21:23:26.713Z,92.30
2022-12-25T21:26:51.519Z,92.30
2022-12-25T21:30:16.092Z,92.10
2022-12-25T21:33:55.351Z,92.30
2022-12-25T21:37:19.029Z,92.30
2022-12-25T21:40:42.685Z,92.10
2022-12-25T21:44:09.905Z,92.10
2022-12-25T21:48:01.851Z,91.70
2022-12-25T21:51:38.600Z,91.60
2022-12-25T21:55:01.987Z,91.30
2022-12-25T21:58:26.012Z,91.90
2022-12-25T22:01:52.769Z,92.00
2022-12-25T22:05:37.555Z,91.70
2022-12-25T22:09:00.166Z,91.90
2022-12-25T22:12:41.376Z,92.00
2022-12-25T22:16:23.281Z,92.00
2022-12-25T22:19:48.985Z,92.20
2022-12-25T22:23:14.367Z,92.10
2022-12-25T22:26:37.827Z,92.60
2022-12-25T22:30:01.699Z,92.70
2022-12-25T22:33:27.217Z,92.70
2022-12-25T22:36:52.094Z,92.70
2022-12-25T22:40:18.519Z,92.10
2022-12-25T22:47:25.653Z,92.00
2022-12-25T22:50:49.109Z,92.00
2022-12-25T22:54:16.248Z,90.80
2022-12-25T22:57:39.749Z,91.30
2022-12-25T23:01:03.615Z,91.40
2022-12-25T23:04:28.253Z,91.30
2022-12-25T23:07:51.789Z,91.10
2022-12-25T23:11:16.735Z,90.70
2022-12-25T23:14:40.187Z,90.40
2022-12-25T23:18:21.431Z,90.30
2022-12-25T23:22:02.618Z,90.10
2022-12-25T23:25:40.279Z,89.90
2022-12-25T23:29:22.733Z,90.10
2022-12-25T23:32:46.184Z,89.90
2022-12-25T23:36:10.075Z,90.10
2022-12-25T23:39:33.588Z,89.90
2022-12-25T23:42:56.968Z,89.60
2022-12-25T23:46:21.772Z,89.20
2022-12-25T23:49:45.149Z,88.50
2022-12-25T23:53:08.526Z,87.70
2022-12-25T23:56:31.937Z,87.90
2022-12-25T23:59:55.348Z,88.10
